createdAt,value
2022-12-02T00:01:00.978Z,30.63
2022-12-02T00:03:28.173Z,29.15
2022-12-02T00:05:55.895Z,30.55
2022-12-02T00:08:25.614Z,30.90
2022-12-02T00:10:53.821Z,33.42
2022-12-02T00:13:26.273Z,31.08
2022-12-02T00:16:02.013Z,35.20
2022-12-02T00:18:29.369Z,38.10
2022-12-02T00:20:57.048Z,33.03
2022-12-02T00:23:24.532Z,33.90
2022-12-02T00:25:53.240Z,38.35
2022-12-02T00:28:22.256Z,38.42
2022-12-02T00:30:51.498Z,33.05
2022-12-02T00:33:19.266Z,35.33
2022-12-02T00:35:46.845Z,33.28
2022-12-02T00:38:13.920Z,37.38
2022-12-02T00:40:41.156Z,36.90
2022-12-02T00:43:27.751Z,34.17
2022-12-02T00:46:13.530Z,37.38
2022-12-02T00:48:40.907Z,32.80
2022-12-02T00:51:08.936Z,36.75
2022-12-02T00:53:36.148Z,37.35
2022-12-02T00:56:02.895Z,35.78
2022-12-02T00:58:30.070Z,33.67
2022-12-02T01:00:57.672Z,35.45
2022-12-02T01:03:25.849Z,38.13
2022-12-02T01:05:52.744Z,35.75
2022-12-02T01:08:19.609Z,36.67
2022-12-02T01:10:46.407Z,38.92
2022-12-02T01:13:13.672Z,39.97
2022-12-02T01:15:40.758Z,36.88
2022-12-02T01:18:08.326Z,38.78
2022-12-02T01:20:35.274Z,38.35
2022-12-02T01:23:02.225Z,38.33
2022-12-02T01:25:30.048Z,38.67
2022-12-02T01:27:58.083Z,38.83
2022-12-02T01:30:26.527Z,39.92
2022-12-02T01:32:53.844Z,41.88
2022-12-02T01:35:21.552Z,41.63
2022-12-02T01:37:50.525Z,38.22
2022-12-02T01:40:20.391Z,36.55
2022-12-02T01:42:49.273Z,36.00
2022-12-02T01:45:16.833Z,40.03
2022-12-02T01:47:44.719Z,36.65
2022-12-02T01:50:15.393Z,40.47
2022-12-02T01:52:43.380Z,36.15
2022-12-02T01:55:22.763Z,35.45
2022-12-02T01:57:51.424Z,34.80
2022-12-02T02:00:19.507Z,35.88
2022-12-02T02:02:47.500Z,35.80
2022-12-02T02:05:14.596Z,38.67
2022-12-02T02:07:43.088Z,39.17
2022-12-02T02:10:11.099Z,34.63
2022-12-02T02:12:38.135Z,33.67
2022-12-02T02:15:08.668Z,32.53
2022-12-02T02:17:35.579Z,35.78
2022-12-02T02:20:05.430Z,38.78
2022-12-02T02:22:42.846Z,39.17
2022-12-02T02:25:20.125Z,36.78
2022-12-02T02:27:53.767Z,38.83
2022-12-02T02:30:21.370Z,35.28
2022-12-02T02:32:49.049Z,33.22
2022-12-02T02:35:16.664Z,33.85
2022-12-02T02:37:45.030Z,35.15
2022-12-02T02:40:16.313Z,34.33
2022-12-02T02:42:46.381Z,34.53
2022-12-02T02:45:14.538Z,34.78
2022-12-02T02:47:41.462Z,32.65
2022-12-02T02:50:09.613Z,31.00
2022-12-02T02:52:36.820Z,32.03
2022-12-02T02:55:04.418Z,34.10
2022-12-02T02:57:32.410Z,32.30
2022-12-02T03:00:00.363Z,29.63
2022-12-02T03:02:29.858Z,35.13
2022-12-02T03:04:57.692Z,30.58
2022-12-02T03:07:24.742Z,32.83
2022-12-02T03:09:51.975Z,28.50
2022-12-02T03:12:18.984Z,27.35
2022-12-02T03:14:47.414Z,30.83
2022-12-02T03:17:15.084Z,30.73
2022-12-02T03:19:43.721Z,32.50
2022-12-02T03:22:11.203Z,30.92
2022-12-02T03:24:39.145Z,30.95
2022-12-02T03:27:08.155Z,32.47
2022-12-02T03:29:36.045Z,31.27
2022-12-02T03:32:04.251Z,30.40
2022-12-02T03:34:32.329Z,31.85
2022-12-02T03:37:00.820Z,33.38
2022-12-02T03:39:28.609Z,32.53
2022-12-02T03:41:55.845Z,32.20
2022-12-02T03:44:24.686Z,30.95
2022-12-02T03:46:52.171Z,33.70
2022-12-02T03:49:20.454Z,35.13
2022-12-02T03:51:47.923Z,35.05
2022-12-02T03:54:15.434Z,32.85
2022-12-02T03:56:42.917Z,36.38
2022-12-02T03:59:11.965Z,35.28
2022-12-02T04:01:39.606Z,34.90
2022-12-02T04:04:06.882Z,33.45
2022-12-02T04:06:33.696Z,36.17
2022-12-02T04:09:00.885Z,31.95
2022-12-02T04:11:27.930Z,33.83
2022-12-02T04:13:55.769Z,36.40
2022-12-02T04:16:22.535Z,36.13
2022-12-02T04:18:49.388Z,33.45
2022-12-02T04:21:16.597Z,36.70
2022-12-02T04:23:43.944Z,39.25
2022-12-02T04:26:11.268Z,36.30
2022-12-02T04:28:38.196Z,36.35
2022-12-02T04:31:05.769Z,33.60
2022-12-02T04:33:34.453Z,35.45
2022-12-02T04:36:01.568Z,33.75
2022-12-02T04:38:29.467Z,38.08
2022-12-02T04:40:56.307Z,31.13
2022-12-02T04:43:23.262Z,31.98
2022-12-02T04:45:52.603Z,29.98
2022-12-02T04:48:20.465Z,32.80
2022-12-02T04:50:47.875Z,32.80
2022-12-02T04:53:14.772Z,32.25
2022-12-02T04:55:44.227Z,31.27
2022-12-02T04:58:11.293Z,32.63
2022-12-02T05:00:38.387Z,33.10
2022-12-02T05:03:05.274Z,33.08
2022-12-02T05:05:33.116Z,33.08
2022-12-02T05:07:59.963Z,28.27
2022-12-02T05:10:27.872Z,30.40
2022-12-02T05:12:56.123Z,28.83
2022-12-02T05:15:23.391Z,28.50
2022-12-02T05:17:50.648Z,27.60
2022-12-02T05:20:17.686Z,28.08
2022-12-02T05:22:44.672Z,28.58
2022-12-02T05:25:12.871Z,26.48
2022-12-02T05:27:39.622Z,27.70
2022-12-02T05:30:07.762Z,28.50
2022-12-02T05:32:34.948Z,28.48
2022-12-02T05:35:01.893Z,25.25
2022-12-02T05:37:29.737Z,28.95
2022-12-02T05:39:56.800Z,26.77
2022-12-02T05:42:23.627Z,27.17
2022-12-02T05:44:50.985Z,27.33
2022-12-02T05:47:19.072Z,31.42
2022-12-02T05:49:47.811Z,27.83
2022-12-02T05:52:26.248Z,30.00
2022-12-02T05:54:55.550Z,29.13
2022-12-02T05:57:28.383Z,27.15
2022-12-02T06:00:23.834Z,28.43
2022-12-02T06:02:53.315Z,30.92
2022-12-02T06:05:22.993Z,30.60
2022-12-02T06:07:53.083Z,29.60
2022-12-02T06:10:24.932Z,30.48
2022-12-02T06:12:54.030Z,28.73
2022-12-02T06:15:23.272Z,29.20
2022-12-02T06:17:51.197Z,28.13
2022-12-02T06:20:28.643Z,34.58
2022-12-02T06:22:56.079Z,31.65
2022-12-02T06:25:30.574Z,29.02
2022-12-02T06:28:11.673Z,30.55
2022-12-02T06:30:41.384Z,33.13
2022-12-02T06:33:22.467Z,32.00
2022-12-02T06:35:51.235Z,33.83
2022-12-02T06:38:28.649Z,30.50
2022-12-02T06:40:56.813Z,31.98
2022-12-02T06:43:28.920Z,33.05
2022-12-02T06:45:56.345Z,34.17
2022-12-02T06:48:44.596Z,33.28
2022-12-02T06:51:20.127Z,31.83
2022-12-02T06:53:47.661Z,35.45
2022-12-02T06:56:24.109Z,31.45
2022-12-02T06:58:57.624Z,33.28
2022-12-02T07:01:32.090Z,35.20
2022-12-02T07:06:34.039Z,31.02
2022-12-02T07:09:04.788Z,26.50
2022-12-02T07:11:53.683Z,28.15
2022-12-02T07:14:50.862Z,28.30
2022-12-02T07:17:42.271Z,26.60
2022-12-02T07:20:12.060Z,26.35
2022-12-02T07:23:11.625Z,27.73
2022-12-02T07:25:51.730Z,27.63
2022-12-02T07:28:38.752Z,24.33
2022-12-02T07:31:38.499Z,25.50
2022-12-02T07:34:05.505Z,25.33
2022-12-02T07:36:33.739Z,24.70
2022-12-02T07:39:07.940Z,27.85
2022-12-02T07:41:37.064Z,24.73
2022-12-02T07:44:06.650Z,24.75
2022-12-02T07:46:35.036Z,25.23
2022-12-02T07:49:02.175Z,25.98
2022-12-02T07:51:31.682Z,26.02
2022-12-02T07:53:59.843Z,28.27
2022-12-02T07:56:29.451Z,29.65
2022-12-02T07:59:14.198Z,31.08
2022-12-02T08:01:44.139Z,33.28
2022-12-02T08:04:12.518Z,28.42
2022-12-02T08:06:41.019Z,25.83
2022-12-02T08:09:10.021Z,25.00
2022-12-02T08:11:37.320Z,25.05
2022-12-02T08:14:04.460Z,21.73
2022-12-02T08:16:33.563Z,22.98
2022-12-02T08:19:03.743Z,23.42
2022-12-02T08:21:34.291Z,21.65
2022-12-02T08:24:05.299Z,18.08
2022-12-02T08:26:33.369Z,19.60
2022-12-02T08:29:00.142Z,18.10
2022-12-02T08:31:28.341Z,18.27
2022-12-02T08:34:05.272Z,17.20
2022-12-02T08:36:37.436Z,17.70
2022-12-02T08:39:07.415Z,17.88
2022-12-02T08:41:35.307Z,18.40
2022-12-02T08:44:02.637Z,18.83
2022-12-02T08:46:29.717Z,17.35
2022-12-02T08:48:56.566Z,16.88
2022-12-02T08:51:23.503Z,16.13
2022-12-02T08:53:50.924Z,14.88
2022-12-02T08:56:18.169Z,14.95
2022-12-02T08:58:44.923Z,14.95
2022-12-02T09:01:11.756Z,14.45
2022-12-02T09:03:38.645Z,12.95
2022-12-02T09:06:05.697Z,21.20
2022-12-02T09:08:32.961Z,14.50
2022-12-02T09:11:00.392Z,12.40
2022-12-02T09:13:27.498Z,12.13
2022-12-02T09:15:54.441Z,16.58
2022-12-02T09:18:21.288Z,14.10
2022-12-02T09:20:48.719Z,16.92
2022-12-02T09:23:15.671Z,14.32
2022-12-02T09:25:42.654Z,14.00
2022-12-02T09:28:09.877Z,14.48
2022-12-02T09:30:36.699Z,16.88
2022-12-02T09:33:03.912Z,14.50
2022-12-02T09:35:31.138Z,14.30
2022-12-02T09:37:58.011Z,13.07
2022-12-02T09:40:25.374Z,14.23
2022-12-02T09:42:52.567Z,14.05
2022-12-02T09:45:19.605Z,17.05
2022-12-02T09:47:46.526Z,12.35
2022-12-02T09:50:15.052Z,14.15
2022-12-02T09:52:41.937Z,12.20
2022-12-02T09:55:14.140Z,13.75
2022-12-02T09:57:42.185Z,13.57
2022-12-02T10:00:15.797Z,12.65
2022-12-02T10:02:47.513Z,11.90
2022-12-02T10:05:25.460Z,12.98
2022-12-02T10:07:54.987Z,14.20
2022-12-02T10:10:25.012Z,13.75
2022-12-02T10:12:53.160Z,14.50
2022-12-02T10:15:28.548Z,13.00
2022-12-02T10:17:56.264Z,13.15
2022-12-02T10:20:26.212Z,14.02
2022-12-02T10:23:11.853Z,15.32
2022-12-02T10:25:41.145Z,15.75
2022-12-02T10:28:26.487Z,14.50
2022-12-02T10:30:57.179Z,14.18
2022-12-02T10:33:29.613Z,15.75
2022-12-02T10:35:57.366Z,14.55
2022-12-02T10:38:44.637Z,14.10
2022-12-02T10:41:23.329Z,20.05
2022-12-02T10:44:15.677Z,23.02
2022-12-02T10:46:43.293Z,20.42
2022-12-02T10:49:23.619Z,16.77
2022-12-02T10:51:50.343Z,15.18
2022-12-02T10:54:23.823Z,15.73
2022-12-02T10:56:50.814Z,16.10
2022-12-02T10:59:17.719Z,14.32
2022-12-02T11:01:45.846Z,13.77
2022-12-02T11:04:14.617Z,14.70
2022-12-02T11:06:43.338Z,14.57
2022-12-02T11:12:46.843Z,18.58
2022-12-02T11:15:52.372Z,17.85
2022-12-02T11:18:51.822Z,30.73
2022-12-02T11:21:47.907Z,16.42
2022-12-02T11:24:43.681Z,16.30
2022-12-02T11:27:16.727Z,39.92
2022-12-02T11:30:24.880Z,19.77
2022-12-02T11:32:52.066Z,18.05
2022-12-02T11:35:59.214Z,18.05
2022-12-02T11:38:26.555Z,19.30
2022-12-02T11:41:02.261Z,19.02
2022-12-02T11:43:55.388Z,18.88
2022-12-02T11:46:46.732Z,19.67
2022-12-02T11:49:36.151Z,17.65
2022-12-02T11:52:28.922Z,19.63
2022-12-02T11:55:04.813Z,18.08
2022-12-02T11:57:42.460Z,21.25
2022-12-02T12:00:35.752Z,27.17
2022-12-02T12:03:10.609Z,24.92
2022-12-02T12:05:37.969Z,25.08
2022-12-02T12:08:04.967Z,21.73
2022-12-02T12:10:31.943Z,21.90
2022-12-02T12:13:22.684Z,23.48
2022-12-02T12:15:54.636Z,19.58
2022-12-02T12:18:48.962Z,20.10
2022-12-02T12:21:56.053Z,20.83
2022-12-02T12:24:28.563Z,19.13
2022-12-02T12:27:37.375Z,17.92
2022-12-02T12:30:07.953Z,19.80
2022-12-02T12:32:35.149Z,21.10
2022-12-02T12:35:05.543Z,15.65
2022-12-02T12:37:32.674Z,21.05
2022-12-02T12:39:59.462Z,21.95
2022-12-02T12:42:26.432Z,20.17
2022-12-02T12:44:53.397Z,21.90
2022-12-02T12:47:22.560Z,19.80
2022-12-02T12:49:49.905Z,17.90
2022-12-02T12:52:16.957Z,16.25
2022-12-02T12:54:50.810Z,20.02
2022-12-02T12:59:44.698Z,19.75
2022-12-02T13:02:11.917Z,18.65
2022-12-02T13:04:38.814Z,19.75
2022-12-02T13:07:06.031Z,20.60
2022-12-02T13:09:32.775Z,20.70
2022-12-02T13:11:59.590Z,19.75
2022-12-02T13:14:26.426Z,21.83
2022-12-02T13:16:53.283Z,18.80
2022-12-02T13:19:20.073Z,26.52
2022-12-02T13:21:46.971Z,21.08
2022-12-02T13:24:15.910Z,19.95
2022-12-02T13:26:43.108Z,20.48
2022-12-02T13:29:09.825Z,21.75
2022-12-02T13:31:37.144Z,20.50
2022-12-02T13:34:03.996Z,25.00
2022-12-02T13:36:31.189Z,25.75
2022-12-02T13:39:04.251Z,21.77
2022-12-02T13:41:32.937Z,21.85
2022-12-02T13:43:59.923Z,20.30
2022-12-02T13:46:26.766Z,20.20
2022-12-02T13:48:53.769Z,18.83
2022-12-02T13:51:20.543Z,19.17
2022-12-02T13:53:47.499Z,18.27
2022-12-02T13:56:14.673Z,18.70
2022-12-02T13:58:41.476Z,18.02
2022-12-02T14:01:08.514Z,18.27
2022-12-02T14:03:35.449Z,24.33
2022-12-02T14:06:02.328Z,20.70
2022-12-02T14:08:29.254Z,23.52
2022-12-02T14:10:56.250Z,19.67
2022-12-02T14:13:23.451Z,21.42
2022-12-02T14:15:50.341Z,18.60
2022-12-02T14:18:18.044Z,18.02
2022-12-02T14:20:45.167Z,18.98
2022-12-02T14:23:13.739Z,51.97
2022-12-02T14:25:41.869Z,18.63
2022-12-02T14:28:09.134Z,21.27
2022-12-02T14:30:36.772Z,23.40
2022-12-02T14:33:03.818Z,22.05
2022-12-02T14:35:30.741Z,21.48
2022-12-02T14:37:57.910Z,17.20
2022-12-02T14:40:24.793Z,20.08
2022-12-02T14:42:51.903Z,20.77
2022-12-02T14:45:18.796Z,17.13
2022-12-02T14:47:45.520Z,31.17
2022-12-02T14:50:12.692Z,17.48
2022-12-02T14:52:39.711Z,17.60
2022-12-02T14:55:07.405Z,33.75
2022-12-02T14:57:34.979Z,22.77
2022-12-02T15:00:05.190Z,17.08
2022-12-02T15:02:33.832Z,15.40
2022-12-02T15:05:01.278Z,16.80
2022-12-02T15:07:28.773Z,22.05
2022-12-02T15:09:55.710Z,15.43
2022-12-02T15:12:23.017Z,113.45
2022-12-02T15:14:50.779Z,27.45
2022-12-02T15:17:18.388Z,14.88
2022-12-02T15:19:46.424Z,14.02
2022-12-02T15:22:13.633Z,15.65
2022-12-02T15:24:40.664Z,28.30
2022-12-02T15:27:08.945Z,16.77
2022-12-02T15:29:36.179Z,15.18
2022-12-02T15:32:03.219Z,14.77
2022-12-02T15:34:30.453Z,12.65
2022-12-02T15:36:57.208Z,16.17
2022-12-02T15:39:25.356Z,14.77
2022-12-02T15:41:52.371Z,12.60
2022-12-02T15:44:19.346Z,13.13
2022-12-02T15:46:46.218Z,12.05
2022-12-02T15:49:15.045Z,11.48
2022-12-02T15:51:43.061Z,12.13
2022-12-02T15:54:11.054Z,11.80
2022-12-02T15:56:38.474Z,21.70
2022-12-02T15:59:05.823Z,14.77
2022-12-02T16:01:33.177Z,31.42
2022-12-02T16:04:01.771Z,38.70
2022-12-02T16:06:31.487Z,16.75
2022-12-02T16:08:59.931Z,14.43
2022-12-02T16:11:35.273Z,16.13
2022-12-02T16:14:03.669Z,24.65
2022-12-02T16:16:33.157Z,13.20
2022-12-02T16:19:00.384Z,16.65
2022-12-02T16:21:27.790Z,18.23
2022-12-02T16:23:54.655Z,17.92
2022-12-02T16:26:21.564Z,17.75
2022-12-02T16:28:50.168Z,18.15
2022-12-02T16:31:17.531Z,16.92
2022-12-02T16:33:44.827Z,19.33
2022-12-02T16:36:12.043Z,21.08
2022-12-02T16:38:39.043Z,19.95
2022-12-02T16:41:07.289Z,23.52
2022-12-02T16:43:34.549Z,19.42
2022-12-02T16:46:02.870Z,44.42
2022-12-02T16:48:30.456Z,28.05
2022-12-02T16:50:57.203Z,22.80
2022-12-02T16:53:24.451Z,46.08
2022-12-02T16:55:51.165Z,33.70
2022-12-02T16:58:18.042Z,26.83
2022-12-02T17:00:45.069Z,30.23
2022-12-02T17:03:12.737Z,29.20
2022-12-02T17:05:40.078Z,37.10
2022-12-02T17:08:07.051Z,35.88
2022-12-02T17:10:34.854Z,45.25
2022-12-02T17:13:02.190Z,40.30
2022-12-02T17:15:31.629Z,44.25
2022-12-02T17:18:00.654Z,49.47
2022-12-02T17:20:27.703Z,47.55
2022-12-02T17:22:54.635Z,51.25
2022-12-02T17:25:21.411Z,46.47
2022-12-02T17:27:48.501Z,52.10
2022-12-02T17:30:18.141Z,51.05
2022-12-02T17:32:45.583Z,48.42
2022-12-02T17:35:14.074Z,46.90
2022-12-02T17:37:40.990Z,48.35
2022-12-02T17:40:08.669Z,46.40
2022-12-02T17:42:35.529Z,51.70
2022-12-02T17:45:02.688Z,52.53
2022-12-02T17:47:29.662Z,47.47
2022-12-02T17:49:56.531Z,48.72
2022-12-02T17:52:23.558Z,50.05
2022-12-02T17:54:51.188Z,51.80
2022-12-02T17:57:18.664Z,56.40
2022-12-02T17:59:45.917Z,56.83
2022-12-02T18:02:13.460Z,54.55
2022-12-02T18:04:44.836Z,58.13
2022-12-02T18:07:12.523Z,61.17
2022-12-02T18:09:39.644Z,56.33
2022-12-02T18:12:08.031Z,64.97
2022-12-02T18:14:35.180Z,61.92
2022-12-02T18:17:02.423Z,53.70
2022-12-02T18:19:29.402Z,57.08
2022-12-02T18:21:56.172Z,62.67
2022-12-02T18:24:23.126Z,59.25
2022-12-02T18:26:50.623Z,56.17
2022-12-02T18:29:17.403Z,55.88
2022-12-02T18:31:44.248Z,57.00
2022-12-02T18:34:11.675Z,54.83
2022-12-02T18:36:38.914Z,58.78
2022-12-02T18:39:05.939Z,60.75
2022-12-02T18:41:32.681Z,66.82
2022-12-02T18:43:59.485Z,56.63
2022-12-02T18:46:26.617Z,55.38
2022-12-02T18:48:53.620Z,63.22
2022-12-02T18:51:20.564Z,62.58
2022-12-02T18:53:47.340Z,48.38
2022-12-02T18:56:19.048Z,45.10
2022-12-02T18:58:49.211Z,55.45
2022-12-02T19:01:16.335Z,43.83
2022-12-02T19:03:43.239Z,51.63
2022-12-02T19:06:10.047Z,48.40
2022-12-02T19:08:36.979Z,50.60
2022-12-02T19:11:04.032Z,49.38
2022-12-02T19:13:31.200Z,45.03
2022-12-02T19:15:58.919Z,48.92
2022-12-02T19:18:26.384Z,51.20
2022-12-02T19:20:53.379Z,49.70
2022-12-02T19:23:20.935Z,48.35
2022-12-02T19:25:50.353Z,51.88
2022-12-02T19:28:17.749Z,57.15
2022-12-02T19:30:44.563Z,58.53
2022-12-02T19:33:11.446Z,50.10
2022-12-02T19:35:39.749Z,44.60
2022-12-02T19:38:15.652Z,48.95
2022-12-02T19:40:45.573Z,49.83
2022-12-02T19:43:13.890Z,46.70
2022-12-02T19:45:42.305Z,34.30
2022-12-02T19:48:09.573Z,43.58
2022-12-02T19:50:36.414Z,49.63
2022-12-02T19:53:03.351Z,44.90
2022-12-02T19:55:30.125Z,37.78
2022-12-02T19:57:57.635Z,31.30
2022-12-02T20:00:24.694Z,34.47
2022-12-02T20:02:51.705Z,32.45
2022-12-02T20:05:21.723Z,32.72
2022-12-02T20:07:49.784Z,36.72
2022-12-02T20:10:17.426Z,37.78
2022-12-02T20:12:44.432Z,45.50
2022-12-02T20:15:12.230Z,61.67
2022-12-02T20:17:39.332Z,55.25
2022-12-02T20:20:08.366Z,44.13
2022-12-02T20:22:35.556Z,39.35
2022-12-02T20:25:04.077Z,43.45
2022-12-02T20:27:31.210Z,39.85
2022-12-02T20:29:58.992Z,34.08
2022-12-02T20:32:25.963Z,32.55
2022-12-02T20:34:53.114Z,44.03
2022-12-02T20:39:51.770Z,33.78
2022-12-02T20:42:18.947Z,37.13
2022-12-02T20:44:52.086Z,32.58
2022-12-02T20:47:20.268Z,30.15
2022-12-02T20:49:47.581Z,29.65
2022-12-02T20:52:15.829Z,29.45
2022-12-02T20:54:43.198Z,33.03
2022-12-02T20:57:12.445Z,23.90
2022-12-02T20:59:41.010Z,29.00
2022-12-02T21:02:10.558Z,25.02
2022-12-02T21:04:38.885Z,25.23
2022-12-02T21:07:10.046Z,25.13
2022-12-02T21:09:40.206Z,24.52
2022-12-02T21:12:07.832Z,25.00
2022-12-02T21:14:35.327Z,23.23
2022-12-02T21:17:02.547Z,25.58
2022-12-02T21:19:30.030Z,23.23
2022-12-02T21:21:57.171Z,19.95
2022-12-02T21:24:24.836Z,21.17
2022-12-02T21:26:51.682Z,24.67
2022-12-02T21:29:18.607Z,22.77
2022-12-02T21:31:46.206Z,27.23
2022-12-02T21:34:13.164Z,25.08
2022-12-02T21:36:40.128Z,23.08
2022-12-02T21:39:07.390Z,26.23
2022-12-02T21:41:34.333Z,20.52
2022-12-02T21:44:01.195Z,33.28
2022-12-02T21:46:28.722Z,25.17
2022-12-02T21:48:55.802Z,42.05
2022-12-02T21:51:25.053Z,22.38
2022-12-02T21:53:51.937Z,22.80
2022-12-02T21:56:19.094Z,23.08
2022-12-02T21:58:45.880Z,24.05
2022-12-02T22:01:32.690Z,40.42
2022-12-02T22:03:59.934Z,22.10
2022-12-02T22:06:26.913Z,40.75
2022-12-02T22:08:54.332Z,25.23
2022-12-02T22:11:21.230Z,23.50
2022-12-02T22:13:48.303Z,25.60
2022-12-02T22:16:15.098Z,22.77
2022-12-02T22:18:41.892Z,28.75
2022-12-02T22:21:09.209Z,29.80
2022-12-02T22:23:36.376Z,22.92
2022-12-02T22:26:03.899Z,22.75
2022-12-02T22:28:30.926Z,24.30
2022-12-02T22:30:58.267Z,27.83
2022-12-02T22:33:30.018Z,22.05
2022-12-02T22:35:59.655Z,23.30
2022-12-02T22:38:26.639Z,20.33
2022-12-02T22:40:53.737Z,21.88
2022-12-02T22:43:20.548Z,21.48
2022-12-02T22:45:48.279Z,21.98
2022-12-02T22:48:22.443Z,24.67
2022-12-02T22:50:53.277Z,22.60
2022-12-02T22:53:20.527Z,22.20
2022-12-02T22:55:47.506Z,23.30
2022-12-02T22:58:14.310Z,21.08
2022-12-02T23:00:41.127Z,22.23
2022-12-02T23:03:08.219Z,23.27
2022-12-02T23:05:35.368Z,20.23
2022-12-02T23:08:02.171Z,19.67
2022-12-02T23:10:29.065Z,19.20
2022-12-02T23:12:55.783Z,21.45
2022-12-02T23:15:39.201Z,22.08
2022-12-02T23:18:07.352Z,20.65
2022-12-02T23:20:35.546Z,22.27
2022-12-02T23:23:02.385Z,22.48
2022-12-02T23:25:29.156Z,21.08
2022-12-02T23:27:55.944Z,24.83
2022-12-02T23:30:28.572Z,22.95
2022-12-02T23:32:57.269Z,22.50
2022-12-02T23:35:24.351Z,24.05
2022-12-02T23:37:51.373Z,23.45
2022-12-02T23:40:18.332Z,20.83
2022-12-02T23:42:45.184Z,19.25
2022-12-02T23:45:12.212Z,24.25
2022-12-02T23:47:38.927Z,21.42
2022-12-02T23:50:07.772Z,24.73
2022-12-02T23:52:34.540Z,22.13
2022-12-02T23:55:01.303Z,20.05
2022-12-02T23:57:28.109Z,23.60
2022-12-02T23:59:54.998Z,22.30
